sensor_id;sensor_type;location;lat;lon;timestamp;P1;durP1;ratioP1;P2;durP2;ratioP2
15153;SDS011;7677;41.896;25.004;2023-05-10T00:01:26;4.20;;;3.50;;
15153;SDS011;7677;41.896;25.004;2023-05-10T00:03:54;3.67;;;3.13;;
15153;SDS011;7677;41.896;25.004;2023-05-10T00:06:21;4.10;;;3.67;;
15153;SDS011;7677;41.896;25.004;2023-05-10T00:08:49;4.60;;;3.53;;
15153;SDS011;7677;41.896;25.004;2023-05-10T00:11:25;3.93;;;3.50;;
15153;SDS011;7677;41.896;25.004;2023-05-10T00:13:52;4.03;;;3.63;;
15153;SDS011;7677;41.896;25.004;2023-05-10T00:16:19;6.17;;;3.67;;
15153;SDS011;7677;41.896;25.004;2023-05-10T00:18:49;4.77;;;4.20;;
15153;SDS011;7677;41.896;25.004;2023-05-10T00:21:16;4.67;;;3.80;;
15153;SDS011;7677;41.896;25.004;2023-05-10T00:23:43;4.33;;;3.50;;
15153;SDS011;7677;41.896;25.004;2023-05-10T00:26:11;4.40;;;3.60;;
15153;SDS011;7677;41.896;25.004;2023-05-10T00:28:40;4.77;;;4.27;;
15153;SDS011;7677;41.896;25.004;2023-05-10T00:31:07;8.03;;;3.73;;
15153;SDS011;7677;41.896;25.004;2023-05-10T00:33:37;3.90;;;3.57;;
15153;SDS011;7677;41.896;25.004;2023-05-10T00:36:07;4.03;;;3.50;;
15153;SDS011;7677;41.896;25.004;2023-05-10T00:38:35;3.83;;;3.50;;
15153;SDS011;7677;41.896;25.004;2023-05-10T00:41:03;7.73;;;4.03;;
15153;SDS011;7677;41.896;25.004;2023-05-10T00:43:30;4.10;;;3.57;;
15153;SDS011;7677;41.896;25.004;2023-05-10T00:45:58;4.17;;;3.70;;
15153;SDS011;7677;41.896;25.004;2023-05-10T00:48:25;4.93;;;4.00;;
15153;SDS011;7677;41.896;25.004;2023-05-10T00:50:53;4.10;;;3.70;;
15153;SDS011;7677;41.896;25.004;2023-05-10T00:53:22;5.60;;;3.60;;
15153;SDS011;7677;41.896;25.004;2023-05-10T00:55:50;4.37;;;3.67;;
15153;SDS011;7677;41.896;25.004;2023-05-10T00:58:18;4.73;;;3.73;;
15153;SDS011;7677;41.896;25.004;2023-05-10T01:00:45;5.20;;;4.17;;
15153;SDS011;7677;41.896;25.004;2023-05-10T01:03:14;5.23;;;3.70;;
15153;SDS011;7677;41.896;25.004;2023-05-10T01:05:41;4.33;;;3.93;;
15153;SDS011;7677;41.896;25.004;2023-05-10T01:08:08;5.73;;;3.80;;
15153;SDS011;7677;41.896;25.004;2023-05-10T01:10:37;7.40;;;3.80;;
15153;SDS011;7677;41.896;25.004;2023-05-10T01:13:05;5.23;;;3.53;;
15153;SDS011;7677;41.896;25.004;2023-05-10T01:15:33;7.80;;;4.07;;
15153;SDS011;7677;41.896;25.004;2023-05-10T01:18:12;4.43;;;3.97;;
15153;SDS011;7677;41.896;25.004;2023-05-10T01:20:40;4.67;;;3.63;;
15153;SDS011;7677;41.896;25.004;2023-05-10T01:23:12;5.33;;;4.07;;
15153;SDS011;7677;41.896;25.004;2023-05-10T01:25:58;5.37;;;3.87;;
15153;SDS011;7677;41.896;25.004;2023-05-10T01:28:39;4.70;;;3.47;;
15153;SDS011;7677;41.896;25.004;2023-05-10T01:31:30;4.10;;;3.63;;
15153;SDS011;7677;41.896;25.004;2023-05-10T01:36:58;3.60;;;3.30;;
15153;SDS011;7677;41.896;25.004;2023-05-10T01:39:28;5.03;;;3.97;;
15153;SDS011;7677;41.896;25.004;2023-05-10T01:42:03;4.70;;;3.57;;
15153;SDS011;7677;41.896;25.004;2023-05-10T01:44:34;3.33;;;3.03;;
15153;SDS011;7677;41.896;25.004;2023-05-10T01:47:05;6.00;;;4.27;;
15153;SDS011;7677;41.896;25.004;2023-05-10T01:49:37;5.67;;;4.00;;
15153;SDS011;7677;41.896;25.004;2023-05-10T01:52:08;7.30;;;4.33;;
15153;SDS011;7677;41.896;25.004;2023-05-10T01:54:37;4.50;;;3.97;;
15153;SDS011;7677;41.896;25.004;2023-05-10T01:57:06;6.40;;;4.03;;
15153;SDS011;7677;41.896;25.004;2023-05-10T01:59:34;8.23;;;4.20;;
15153;SDS011;7677;41.896;25.004;2023-05-10T02:02:08;4.60;;;4.20;;
15153;SDS011;7677;41.896;25.004;2023-05-10T02:04:38;4.67;;;4.10;;
15153;SDS011;7677;41.896;25.004;2023-05-10T02:07:06;7.53;;;4.53;;
15153;SDS011;7677;41.896;25.004;2023-05-10T02:09:35;10.30;;;5.03;;
15153;SDS011;7677;41.896;25.004;2023-05-10T02:12:04;6.00;;;4.77;;
15153;SDS011;7677;41.896;25.004;2023-05-10T02:14:33;4.87;;;4.37;;
15153;SDS011;7677;41.896;25.004;2023-05-10T02:17:04;5.50;;;4.53;;
15153;SDS011;7677;41.896;25.004;2023-05-10T02:19:32;5.07;;;4.37;;
15153;SDS011;7677;41.896;25.004;2023-05-10T02:22:02;7.20;;;4.73;;
15153;SDS011;7677;41.896;25.004;2023-05-10T02:24:30;8.23;;;4.50;;
15153;SDS011;7677;41.896;25.004;2023-05-10T02:26:59;8.27;;;4.90;;
15153;SDS011;7677;41.896;25.004;2023-05-10T02:29:26;5.50;;;4.67;;
15153;SDS011;7677;41.896;25.004;2023-05-10T02:31:54;7.60;;;4.87;;
15153;SDS011;7677;41.896;25.004;2023-05-10T02:34:22;6.83;;;4.07;;
15153;SDS011;7677;41.896;25.004;2023-05-10T02:36:50;11.43;;;5.60;;
15153;SDS011;7677;41.896;25.004;2023-05-10T02:39:20;15.40;;;5.17;;
15153;SDS011;7677;41.896;25.004;2023-05-10T02:41:47;7.27;;;5.03;;
15153;SDS011;7677;41.896;25.004;2023-05-10T02:44:17;7.77;;;5.17;;
15153;SDS011;7677;41.896;25.004;2023-05-10T02:46:45;6.60;;;5.40;;
15153;SDS011;7677;41.896;25.004;2023-05-10T02:49:13;10.13;;;5.03;;
15153;SDS011;7677;41.896;25.004;2023-05-10T02:51:41;7.30;;;5.73;;
15153;SDS011;7677;41.896;25.004;2023-05-10T02:54:13;9.07;;;6.20;;
15153;SDS011;7677;41.896;25.004;2023-05-10T02:56:47;9.90;;;5.80;;
15153;SDS011;7677;41.896;25.004;2023-05-10T02:59:16;7.37;;;5.47;;
15153;SDS011;7677;41.896;25.004;2023-05-10T03:01:43;8.83;;;5.40;;
15153;SDS011;7677;41.896;25.004;2023-05-10T03:04:11;7.93;;;5.87;;
15153;SDS011;7677;41.896;25.004;2023-05-10T03:06:38;11.77;;;6.73;;
15153;SDS011;7677;41.896;25.004;2023-05-10T03:09:07;8.83;;;6.77;;
15153;SDS011;7677;41.896;25.004;2023-05-10T03:11:39;7.03;;;6.00;;
15153;SDS011;7677;41.896;25.004;2023-05-10T03:14:16;7.37;;;5.63;;
15153;SDS011;7677;41.896;25.004;2023-05-10T03:16:52;9.63;;;6.03;;
15153;SDS011;7677;41.896;25.004;2023-05-10T03:19:24;9.10;;;5.87;;
15153;SDS011;7677;41.896;25.004;2023-05-10T03:21:53;7.27;;;5.97;;
15153;SDS011;7677;41.896;25.004;2023-05-10T03:24:22;8.77;;;5.77;;
15153;SDS011;7677;41.896;25.004;2023-05-10T03:26:50;8.83;;;5.63;;
15153;SDS011;7677;41.896;25.004;2023-05-10T03:29:21;10.97;;;6.23;;
15153;SDS011;7677;41.896;25.004;2023-05-10T03:31:49;7.67;;;5.93;;
15153;SDS011;7677;41.896;25.004;2023-05-10T03:34:17;7.20;;;5.80;;
15153;SDS011;7677;41.896;25.004;2023-05-10T03:36:50;15.17;;;9.53;;
15153;SDS011;7677;41.896;25.004;2023-05-10T03:39:18;16.50;;;8.70;;
15153;SDS011;7677;41.896;25.004;2023-05-10T03:41:46;10.30;;;7.80;;
15153;SDS011;7677;41.896;25.004;2023-05-10T03:44:13;10.77;;;7.67;;
15153;SDS011;7677;41.896;25.004;2023-05-10T03:46:43;12.40;;;7.43;;
15153;SDS011;7677;41.896;25.004;2023-05-10T03:49:10;8.70;;;7.03;;
15153;SDS011;7677;41.896;25.004;2023-05-10T03:51:38;7.93;;;7.10;;
15153;SDS011;7677;41.896;25.004;2023-05-10T03:54:06;8.27;;;7.13;;
15153;SDS011;7677;41.896;25.004;2023-05-10T03:56:33;8.30;;;5.47;;
15153;SDS011;7677;41.896;25.004;2023-05-10T03:59:00;11.53;;;7.30;;
15153;SDS011;7677;41.896;25.004;2023-05-10T04:01:32;8.70;;;6.23;;
15153;SDS011;7677;41.896;25.004;2023-05-10T04:04:02;8.33;;;6.30;;
15153;SDS011;7677;41.896;25.004;2023-05-10T04:06:30;12.70;;;7.43;;
15153;SDS011;7677;41.896;25.004;2023-05-10T04:08:58;8.90;;;6.87;;
15153;SDS011;7677;41.896;25.004;2023-05-10T04:11:29;7.87;;;6.80;;
15153;SDS011;7677;41.896;25.004;2023-05-10T04:13:56;12.37;;;7.17;;
15153;SDS011;7677;41.896;25.004;2023-05-10T04:16:23;13.67;;;8.17;;
15153;SDS011;7677;41.896;25.004;2023-05-10T04:18:54;13.07;;;8.27;;
15153;SDS011;7677;41.896;25.004;2023-05-10T04:21:23;11.50;;;8.23;;
15153;SDS011;7677;41.896;25.004;2023-05-10T04:23:51;9.73;;;7.50;;
15153;SDS011;7677;41.896;25.004;2023-05-10T04:26:18;9.97;;;7.57;;
15153;SDS011;7677;41.896;25.004;2023-05-10T04:28:47;11.33;;;9.03;;
15153;SDS011;7677;41.896;25.004;2023-05-10T04:31:14;14.20;;;8.40;;
15153;SDS011;7677;41.896;25.004;2023-05-10T04:33:42;10.37;;;6.90;;
15153;SDS011;7677;41.896;25.004;2023-05-10T04:36:10;10.93;;;7.03;;
15153;SDS011;7677;41.896;25.004;2023-05-10T04:38:39;11.53;;;7.50;;
15153;SDS011;7677;41.896;25.004;2023-05-10T04:41:06;12.67;;;7.90;;
15153;SDS011;7677;41.896;25.004;2023-05-10T04:43:34;9.10;;;7.23;;
15153;SDS011;7677;41.896;25.004;2023-05-10T04:46:02;9.70;;;7.23;;
15153;SDS011;7677;41.896;25.004;2023-05-10T04:48:30;12.57;;;8.20;;
15153;SDS011;7677;41.896;25.004;2023-05-10T04:50:58;10.83;;;7.97;;
15153;SDS011;7677;41.896;25.004;2023-05-10T04:53:26;18.43;;;10.00;;
15153;SDS011;7677;41.896;25.004;2023-05-10T04:55:55;16.73;;;9.00;;
15153;SDS011;7677;41.896;25.004;2023-05-10T04:58:22;12.57;;;9.00;;
15153;SDS011;7677;41.896;25.004;2023-05-10T05:00:51;12.30;;;8.37;;
15153;SDS011;7677;41.896;25.004;2023-05-10T05:03:18;13.97;;;8.63;;
15153;SDS011;7677;41.896;25.004;2023-05-10T05:05:47;12.07;;;8.77;;
15153;SDS011;7677;41.896;25.004;2023-05-10T05:08:14;14.33;;;9.57;;
15153;SDS011;7677;41.896;25.004;2023-05-10T05:10:41;10.43;;;8.37;;
15153;SDS011;7677;41.896;25.004;2023-05-10T05:13:12;14.13;;;10.60;;
15153;SDS011;7677;41.896;25.004;2023-05-10T05:15:39;12.03;;;7.97;;
15153;SDS011;7677;41.896;25.004;2023-05-10T05:18:07;14.43;;;8.00;;
15153;SDS011;7677;41.896;25.004;2023-05-10T05:20:34;12.30;;;7.57;;
15153;SDS011;7677;41.896;25.004;2023-05-10T05:23:02;14.87;;;8.83;;
15153;SDS011;7677;41.896;25.004;2023-05-10T05:25:30;9.43;;;7.67;;
15153;SDS011;7677;41.896;25.004;2023-05-10T05:27:57;13.07;;;8.23;;
15153;SDS011;7677;41.896;25.004;2023-05-10T05:30:26;11.90;;;8.70;;
15153;SDS011;7677;41.896;25.004;2023-05-10T05:32:54;11.60;;;8.53;;
15153;SDS011;7677;41.896;25.004;2023-05-10T05:35:22;15.70;;;9.17;;
15153;SDS011;7677;41.896;25.004;2023-05-10T05:37:49;12.27;;;8.67;;
15153;SDS011;7677;41.896;25.004;2023-05-10T05:40:16;10.73;;;7.87;;
15153;SDS011;7677;41.896;25.004;2023-05-10T05:42:43;12.30;;;8.67;;
15153;SDS011;7677;41.896;25.004;2023-05-10T05:45:11;10.93;;;8.57;;
15153;SDS011;7677;41.896;25.004;2023-05-10T05:47:41;12.70;;;7.80;;
15153;SDS011;7677;41.896;25.004;2023-05-10T05:50:09;10.50;;;8.23;;
15153;SDS011;7677;41.896;25.004;2023-05-10T05:52:36;16.47;;;8.23;;
15153;SDS011;7677;41.896;25.004;2023-05-10T05:55:04;9.13;;;8.00;;
15153;SDS011;7677;41.896;25.004;2023-05-10T05:57:31;11.03;;;8.93;;
15153;SDS011;7677;41.896;25.004;2023-05-10T05:59:59;11.87;;;7.77;;
15153;SDS011;7677;41.896;25.004;2023-05-10T06:02:27;11.73;;;8.37;;
15153;SDS011;7677;41.896;25.004;2023-05-10T06:04:57;8.60;;;7.70;;
15153;SDS011;7677;41.896;25.004;2023-05-10T06:07:24;14.23;;;8.57;;
15153;SDS011;7677;41.896;25.004;2023-05-10T06:09:52;12.00;;;8.07;;
15153;SDS011;7677;41.896;25.004;2023-05-10T06:12:19;11.73;;;7.80;;
15153;SDS011;7677;41.896;25.004;2023-05-10T06:14:46;9.50;;;7.53;;
15153;SDS011;7677;41.896;25.004;2023-05-10T06:17:14;9.63;;;7.30;;
15153;SDS011;7677;41.896;25.004;2023-05-10T06:19:41;8.83;;;7.53;;
15153;SDS011;7677;41.896;25.004;2023-05-10T06:22:10;9.70;;;7.83;;
15153;SDS011;7677;41.896;25.004;2023-05-10T06:24:38;12.87;;;8.27;;
15153;SDS011;7677;41.896;25.004;2023-05-10T06:27:06;15.37;;;7.67;;
15153;SDS011;7677;41.896;25.004;2023-05-10T06:29:33;9.60;;;7.53;;
15153;SDS011;7677;41.896;25.004;2023-05-10T06:32:01;13.67;;;7.63;;
15153;SDS011;7677;41.896;25.004;2023-05-10T06:34:29;11.80;;;8.03;;
15153;SDS011;7677;41.896;25.004;2023-05-10T06:36:56;13.90;;;8.47;;
15153;SDS011;7677;41.896;25.004;2023-05-10T06:39:25;8.83;;;7.27;;
15153;SDS011;7677;41.896;25.004;2023-05-10T06:41:53;24.90;;;11.33;;
15153;SDS011;7677;41.896;25.004;2023-05-10T06:44:21;18.97;;;12.30;;
15153;SDS011;7677;41.896;25.004;2023-05-10T06:46:48;19.43;;;11.53;;
15153;SDS011;7677;41.896;25.004;2023-05-10T06:49:17;21.50;;;12.90;;
15153;SDS011;7677;41.896;25.004;2023-05-10T06:51:45;13.70;;;8.50;;
15153;SDS011;7677;41.896;25.004;2023-05-10T06:54:12;14.50;;;9.30;;
15153;SDS011;7677;41.896;25.004;2023-05-10T06:56:42;15.63;;;10.10;;
15153;SDS011;7677;41.896;25.004;2023-05-10T06:59:10;10.73;;;8.13;;
15153;SDS011;7677;41.896;25.004;2023-05-10T07:01:38;9.80;;;7.20;;
15153;SDS011;7677;41.896;25.004;2023-05-10T07:04:06;11.20;;;6.87;;
15153;SDS011;7677;41.896;25.004;2023-05-10T07:06:33;7.33;;;6.30;;
15153;SDS011;7677;41.896;25.004;2023-05-10T07:09:01;7.43;;;6.03;;
15153;SDS011;7677;41.896;25.004;2023-05-10T07:11:28;8.97;;;6.83;;
15153;SDS011;7677;41.896;25.004;2023-05-10T07:13:57;7.83;;;6.87;;
15153;SDS011;7677;41.896;25.004;2023-05-10T07:16:24;10.77;;;7.53;;
15153;SDS011;7677;41.896;25.004;2023-05-10T07:18:52;9.47;;;7.20;;
15153;SDS011;7677;41.896;25.004;2023-05-10T07:21:19;8.23;;;7.27;;
15153;SDS011;7677;41.896;25.004;2023-05-10T07:23:49;10.40;;;6.73;;
15153;SDS011;7677;41.896;25.004;2023-05-10T07:26:16;11.10;;;8.23;;
15153;SDS011;7677;41.896;25.004;2023-05-10T07:28:44;10.33;;;7.00;;
15153;SDS011;7677;41.896;25.004;2023-05-10T07:31:13;16.27;;;8.17;;
15153;SDS011;7677;41.896;25.004;2023-05-10T07:33:41;13.23;;;9.43;;
15153;SDS011;7677;41.896;25.004;2023-05-10T07:36:08;11.80;;;8.90;;
15153;SDS011;7677;41.896;25.004;2023-05-10T07:38:35;10.00;;;7.40;;
15153;SDS011;7677;41.896;25.004;2023-05-10T07:41:03;8.90;;;6.13;;
15153;SDS011;7677;41.896;25.004;2023-05-10T07:43:30;7.37;;;6.60;;
15153;SDS011;7677;41.896;25.004;2023-05-10T07:46:01;9.07;;;6.57;;
15153;SDS011;7677;41.896;25.004;2023-05-10T07:48:31;8.87;;;6.73;;
15153;SDS011;7677;41.896;25.004;2023-05-10T07:50:58;9.50;;;7.60;;
15153;SDS011;7677;41.896;25.004;2023-05-10T07:53:26;7.53;;;6.70;;
15153;SDS011;7677;41.896;25.004;2023-05-10T07:55:54;7.47;;;6.67;;
15153;SDS011;7677;41.896;25.004;2023-05-10T07:58:24;6.50;;;5.60;;
15153;SDS011;7677;41.896;25.004;2023-05-10T08:00:52;7.30;;;6.50;;
15153;SDS011;7677;41.896;25.004;2023-05-10T08:03:19;8.53;;;5.57;;
15153;SDS011;7677;41.896;25.004;2023-05-10T08:05:48;8.97;;;6.10;;
15153;SDS011;7677;41.896;25.004;2023-05-10T08:08:16;8.77;;;6.87;;
15153;SDS011;7677;41.896;25.004;2023-05-10T08:10:43;8.90;;;6.30;;
15153;SDS011;7677;41.896;25.004;2023-05-10T08:13:10;7.17;;;6.40;;
15153;SDS011;7677;41.896;25.004;2023-05-10T08:15:38;9.70;;;7.23;;
15153;SDS011;7677;41.896;25.004;2023-05-10T08:18:05;7.50;;;6.43;;
15153;SDS011;7677;41.896;25.004;2023-05-10T08:20:32;8.93;;;6.43;;
15153;SDS011;7677;41.896;25.004;2023-05-10T08:25:48;7.67;;;5.43;;
15153;SDS011;7677;41.896;25.004;2023-05-10T08:28:16;6.47;;;5.47;;
15153;SDS011;7677;41.896;25.004;2023-05-10T08:30:43;6.10;;;5.30;;
15153;SDS011;7677;41.896;25.004;2023-05-10T08:33:11;5.53;;;4.93;;
15153;SDS011;7677;41.896;25.004;2023-05-10T08:35:38;5.97;;;5.37;;
15153;SDS011;7677;41.896;25.004;2023-05-10T08:38:06;7.03;;;5.43;;
15153;SDS011;7677;41.896;25.004;2023-05-10T08:40:35;7.83;;;5.40;;
15153;SDS011;7677;41.896;25.004;2023-05-10T08:45:55;5.37;;;4.87;;
15153;SDS011;7677;41.896;25.004;2023-05-10T08:48:23;7.50;;;5.33;;
15153;SDS011;7677;41.896;25.004;2023-05-10T08:50:52;5.33;;;4.80;;
15153;SDS011;7677;41.896;25.004;2023-05-10T08:53:21;18.93;;;7.87;;
15153;SDS011;7677;41.896;25.004;2023-05-10T08:55:53;10.87;;;6.63;;
15153;SDS011;7677;41.896;25.004;2023-05-10T08:58:22;11.93;;;7.33;;
15153;SDS011;7677;41.896;25.004;2023-05-10T09:00:49;7.40;;;4.90;;
15153;SDS011;7677;41.896;25.004;2023-05-10T09:03:17;4.37;;;3.97;;
15153;SDS011;7677;41.896;25.004;2023-05-10T09:05:44;5.23;;;4.63;;
15153;SDS011;7677;41.896;25.004;2023-05-10T09:08:12;5.80;;;5.20;;
15153;SDS011;7677;41.896;25.004;2023-05-10T09:10:42;4.67;;;3.97;;
15153;SDS011;7677;41.896;25.004;2023-05-10T09:13:14;6.07;;;4.90;;
15153;SDS011;7677;41.896;25.004;2023-05-10T09:15:42;6.03;;;5.17;;
15153;SDS011;7677;41.896;25.004;2023-05-10T09:18:10;7.20;;;3.93;;
15153;SDS011;7677;41.896;25.004;2023-05-10T09:20:37;4.53;;;4.13;;
15153;SDS011;7677;41.896;25.004;2023-05-10T09:23:05;6.07;;;5.00;;
15153;SDS011;7677;41.896;25.004;2023-05-10T09:25:32;14.60;;;8.07;;
15153;SDS011;7677;41.896;25.004;2023-05-10T09:28:00;11.03;;;8.30;;
15153;SDS011;7677;41.896;25.004;2023-05-10T09:30:29;6.67;;;5.50;;
15153;SDS011;7677;41.896;25.004;2023-05-10T09:32:59;7.33;;;5.07;;
15153;SDS011;7677;41.896;25.004;2023-05-10T09:35:27;5.33;;;4.80;;
15153;SDS011;7677;41.896;25.004;2023-05-10T09:37:56;4.47;;;3.73;;
15153;SDS011;7677;41.896;25.004;2023-05-10T09:40:25;6.80;;;4.37;;
15153;SDS011;7677;41.896;25.004;2023-05-10T09:42:54;4.53;;;4.10;;
15153;SDS011;7677;41.896;25.004;2023-05-10T09:45:22;8.80;;;4.10;;
15153;SDS011;7677;41.896;25.004;2023-05-10T09:47:52;4.97;;;4.10;;
15153;SDS011;7677;41.896;25.004;2023-05-10T09:50:20;4.10;;;3.73;;
15153;SDS011;7677;41.896;25.004;2023-05-10T09:52:48;4.07;;;3.40;;
15153;SDS011;7677;41.896;25.004;2023-05-10T09:55:17;4.87;;;4.30;;
15153;SDS011;7677;41.896;25.004;2023-05-10T09:57:45;4.30;;;3.37;;
15153;SDS011;7677;41.896;25.004;2023-05-10T10:00:16;5.23;;;4.20;;
15153;SDS011;7677;41.896;25.004;2023-05-10T10:02:45;3.63;;;3.33;;
15153;SDS011;7677;41.896;25.004;2023-05-10T10:05:14;5.73;;;3.60;;
15153;SDS011;7677;41.896;25.004;2023-05-10T10:07:42;5.37;;;4.30;;
15153;SDS011;7677;41.896;25.004;2023-05-10T10:10:09;6.70;;;6.00;;
15153;SDS011;7677;41.896;25.004;2023-05-10T10:12:40;9.00;;;7.23;;
15153;SDS011;7677;41.896;25.004;2023-05-10T10:15:07;8.40;;;6.30;;
15153;SDS011;7677;41.896;25.004;2023-05-10T10:17:35;5.83;;;5.33;;
15153;SDS011;7677;41.896;25.004;2023-05-10T10:20:04;3.87;;;3.53;;
15153;SDS011;7677;41.896;25.004;2023-05-10T10:22:34;4.67;;;4.27;;
15153;SDS011;7677;41.896;25.004;2023-05-10T10:25:01;6.37;;;4.60;;
15153;SDS011;7677;41.896;25.004;2023-05-10T10:27:32;4.70;;;4.23;;
15153;SDS011;7677;41.896;25.004;2023-05-10T10:30:07;3.83;;;3.50;;
15153;SDS011;7677;41.896;25.004;2023-05-10T10:32:43;5.23;;;4.43;;
15153;SDS011;7677;41.896;25.004;2023-05-10T10:35:22;8.83;;;6.33;;
15153;SDS011;7677;41.896;25.004;2023-05-10T10:40:43;14.80;;;11.87;;
15153;SDS011;7677;41.896;25.004;2023-05-10T10:43:23;20.57;;;14.50;;
15153;SDS011;7677;41.896;25.004;2023-05-10T10:46:11;16.33;;;9.83;;
15153;SDS011;7677;41.896;25.004;2023-05-10T10:48:39;26.77;;;14.27;;
15153;SDS011;7677;41.896;25.004;2023-05-10T10:51:07;12.10;;;7.67;;
15153;SDS011;7677;41.896;25.004;2023-05-10T10:53:36;17.57;;;11.07;;
15153;SDS011;7677;41.896;25.004;2023-05-10T10:56:05;8.43;;;6.03;;
15153;SDS011;7677;41.896;25.004;2023-05-10T10:58:34;12.30;;;7.97;;
15153;SDS011;7677;41.896;25.004;2023-05-10T11:01:12;9.53;;;7.73;;
15153;SDS011;7677;41.896;25.004;2023-05-10T11:03:40;14.93;;;10.70;;
15153;SDS011;7677;41.896;25.004;2023-05-10T11:06:31;13.80;;;8.63;;
15153;SDS011;7677;41.896;25.004;2023-05-10T11:09:00;14.30;;;9.33;;
15153;SDS011;7677;41.896;25.004;2023-05-10T11:11:32;14.20;;;10.60;;
15153;SDS011;7677;41.896;25.004;2023-05-10T11:14:02;18.03;;;12.60;;
15153;SDS011;7677;41.896;25.004;2023-05-10T11:16:40;16.70;;;10.77;;
15153;SDS011;7677;41.896;25.004;2023-05-10T11:19:08;13.30;;;8.53;;
15153;SDS011;7677;41.896;25.004;2023-05-10T11:21:44;47.50;;;25.50;;
15153;SDS011;7677;41.896;25.004;2023-05-10T11:24:14;33.20;;;20.30;;
15153;SDS011;7677;41.896;25.004;2023-05-10T11:26:41;11.77;;;9.03;;
15153;SDS011;7677;41.896;25.004;2023-05-10T11:29:10;10.27;;;6.93;;
15153;SDS011;7677;41.896;25.004;2023-05-10T11:31:41;7.90;;;6.63;;
15153;SDS011;7677;41.896;25.004;2023-05-10T11:34:10;9.87;;;6.87;;
15153;SDS011;7677;41.896;25.004;2023-05-10T11:36:39;17.40;;;11.17;;
15153;SDS011;7677;41.896;25.004;2023-05-10T11:39:06;7.50;;;6.73;;
15153;SDS011;7677;41.896;25.004;2023-05-10T11:41:39;5.77;;;5.27;;
15153;SDS011;7677;41.896;25.004;2023-05-10T11:44:06;5.33;;;4.83;;
15153;SDS011;7677;41.896;25.004;2023-05-10T11:46:36;9.10;;;6.47;;
15153;SDS011;7677;41.896;25.004;2023-05-10T11:49:03;7.10;;;6.40;;
15153;SDS011;7677;41.896;25.004;2023-05-10T11:51:33;7.03;;;6.23;;
15153;SDS011;7677;41.896;25.004;2023-05-10T11:54:02;9.47;;;6.83;;
15153;SDS011;7677;41.896;25.004;2023-05-10T11:56:32;6.23;;;5.63;;
15153;SDS011;7677;41.896;25.004;2023-05-10T11:59:02;6.80;;;6.10;;
15153;SDS011;7677;41.896;25.004;2023-05-10T12:01:30;4.73;;;4.33;;
15153;SDS011;7677;41.896;25.004;2023-05-10T12:03:57;5.10;;;4.60;;
15153;SDS011;7677;41.896;25.004;2023-05-10T12:06:26;5.87;;;5.27;;
15153;SDS011;7677;41.896;25.004;2023-05-10T12:08:54;7.63;;;5.60;;
15153;SDS011;7677;41.896;25.004;2023-05-10T12:11:24;15.17;;;10.37;;
15153;SDS011;7677;41.896;25.004;2023-05-10T12:13:52;5.27;;;4.77;;
15153;SDS011;7677;41.896;25.004;2023-05-10T12:16:21;8.23;;;6.63;;
15153;SDS011;7677;41.896;25.004;2023-05-10T12:18:49;8.23;;;7.43;;
15153;SDS011;7677;41.896;25.004;2023-05-10T12:21:17;7.63;;;6.57;;
15153;SDS011;7677;41.896;25.004;2023-05-10T12:23:45;7.43;;;6.17;;
15153;SDS011;7677;41.896;25.004;2023-05-10T12:26:13;6.20;;;5.60;;
15153;SDS011;7677;41.896;25.004;2023-05-10T12:28:40;6.40;;;5.43;;
15153;SDS011;7677;41.896;25.004;2023-05-10T12:31:07;6.83;;;4.97;;
15153;SDS011;7677;41.896;25.004;2023-05-10T12:33:39;8.00;;;6.23;;
15153;SDS011;7677;41.896;25.004;2023-05-10T12:36:08;5.63;;;4.90;;
15153;SDS011;7677;41.896;25.004;2023-05-10T12:38:36;5.40;;;4.90;;
15153;SDS011;7677;41.896;25.004;2023-05-10T12:41:05;8.97;;;4.37;;
15153;SDS011;7677;41.896;25.004;2023-05-10T12:43:33;4.30;;;3.90;;
15153;SDS011;7677;41.896;25.004;2023-05-10T12:46:04;5.23;;;4.70;;
15153;SDS011;7677;41.896;25.004;2023-05-10T12:48:32;4.57;;;4.17;;
15153;SDS011;7677;41.896;25.004;2023-05-10T12:51:01;4.73;;;4.33;;
15153;SDS011;7677;41.896;25.004;2023-05-10T12:53:29;5.30;;;4.80;;
15153;SDS011;7677;41.896;25.004;2023-05-10T12:55:57;4.63;;;4.23;;
15153;SDS011;7677;41.896;25.004;2023-05-10T12:58:24;3.97;;;3.60;;
15153;SDS011;7677;41.896;25.004;2023-05-10T13:00:51;4.47;;;4.07;;
15153;SDS011;7677;41.896;25.004;2023-05-10T13:03:19;6.00;;;4.10;;
15153;SDS011;7677;41.896;25.004;2023-05-10T13:05:46;6.77;;;5.30;;
15153;SDS011;7677;41.896;25.004;2023-05-10T13:08:15;4.83;;;4.43;;
15153;SDS011;7677;41.896;25.004;2023-05-10T13:10:42;3.83;;;3.53;;
15153;SDS011;7677;41.896;25.004;2023-05-10T13:13:09;4.53;;;4.13;;
15153;SDS011;7677;41.896;25.004;2023-05-10T13:15:36;4.37;;;3.97;;
15153;SDS011;7677;41.896;25.004;2023-05-10T13:18:04;4.57;;;4.17;;
15153;SDS011;7677;41.896;25.004;2023-05-10T13:20:31;7.37;;;4.20;;
15153;SDS011;7677;41.896;25.004;2023-05-10T13:22:58;4.70;;;4.30;;
15153;SDS011;7677;41.896;25.004;2023-05-10T13:25:27;6.73;;;5.70;;
15153;SDS011;7677;41.896;25.004;2023-05-10T13:27:54;10.80;;;7.37;;
15153;SDS011;7677;41.896;25.004;2023-05-10T13:30:21;5.70;;;4.53;;
15153;SDS011;7677;41.896;25.004;2023-05-10T13:32:49;6.97;;;5.37;;
15153;SDS011;7677;41.896;25.004;2023-05-10T13:35:16;4.93;;;4.40;;
15153;SDS011;7677;41.896;25.004;2023-05-10T13:37:43;32.90;;;22.63;;
15153;SDS011;7677;41.896;25.004;2023-05-10T13:40:10;26.37;;;17.13;;
15153;SDS011;7677;41.896;25.004;2023-05-10T13:42:40;10.20;;;9.30;;
15153;SDS011;7677;41.896;25.004;2023-05-10T13:45:07;6.07;;;5.47;;
15153;SDS011;7677;41.896;25.004;2023-05-10T13:47:37;5.67;;;4.63;;
15153;SDS011;7677;41.896;25.004;2023-05-10T13:50:04;4.67;;;4.13;;
15153;SDS011;7677;41.896;25.004;2023-05-10T13:52:32;8.30;;;5.30;;
15153;SDS011;7677;41.896;25.004;2023-05-10T13:54:59;6.40;;;5.80;;
15153;SDS011;7677;41.896;25.004;2023-05-10T13:57:27;7.13;;;5.60;;
15153;SDS011;7677;41.896;25.004;2023-05-10T13:59:56;6.23;;;4.50;;
15153;SDS011;7677;41.896;25.004;2023-05-10T14:02:24;8.30;;;6.33;;
15153;SDS011;7677;41.896;25.004;2023-05-10T14:04:52;5.63;;;4.20;;
15153;SDS011;7677;41.896;25.004;2023-05-10T14:07:19;5.10;;;4.30;;
15153;SDS011;7677;41.896;25.004;2023-05-10T14:09:47;4.83;;;4.43;;
15153;SDS011;7677;41.896;25.004;2023-05-10T14:12:14;5.53;;;4.50;;
15153;SDS011;7677;41.896;25.004;2023-05-10T14:14:41;6.40;;;4.87;;
15153;SDS011;7677;41.896;25.004;2023-05-10T14:17:10;15.37;;;12.73;;
15153;SDS011;7677;41.896;25.004;2023-05-10T14:19:37;7.40;;;6.20;;
15153;SDS011;7677;41.896;25.004;2023-05-10T14:22:04;4.97;;;4.53;;
15153;SDS011;7677;41.896;25.004;2023-05-10T14:24:31;4.43;;;4.03;;
15153;SDS011;7677;41.896;25.004;2023-05-10T14:26:58;4.00;;;3.70;;
15153;SDS011;7677;41.896;25.004;2023-05-10T14:29:26;4.13;;;3.70;;
15153;SDS011;7677;41.896;25.004;2023-05-10T14:31:53;5.50;;;4.37;;
15153;SDS011;7677;41.896;25.004;2023-05-10T14:34:22;9.10;;;6.07;;
15153;SDS011;7677;41.896;25.004;2023-05-10T14:36:49;3.67;;;3.37;;
15153;SDS011;7677;41.896;25.004;2023-05-10T14:39:16;4.50;;;4.10;;
15153;SDS011;7677;41.896;25.004;2023-05-10T14:41:43;4.03;;;3.70;;
15153;SDS011;7677;41.896;25.004;2023-05-10T14:44:11;3.97;;;3.67;;
15153;SDS011;7677;41.896;25.004;2023-05-10T14:46:38;16.13;;;9.70;;
15153;SDS011;7677;41.896;25.004;2023-05-10T14:49:05;4.63;;;3.93;;
15153;SDS011;7677;41.896;25.004;2023-05-10T14:51:34;6.07;;;3.50;;
15153;SDS011;7677;41.896;25.004;2023-05-10T14:54:02;10.40;;;6.87;;
15153;SDS011;7677;41.896;25.004;2023-05-10T14:56:29;4.97;;;4.43;;
15153;SDS011;7677;41.896;25.004;2023-05-10T14:58:56;5.17;;;4.13;;
15153;SDS011;7677;41.896;25.004;2023-05-10T15:01:24;4.40;;;3.63;;
15153;SDS011;7677;41.896;25.004;2023-05-10T15:03:52;3.63;;;3.27;;